Time;durP1;ratioP1;P1;durP2;ratioP2;P2;SDS_P1;SDS_P2;PMS_P1;PMS_P2;Temp;Humidity;BMP_temperature;BMP_pressure;BME280_temperature;BME280_humidity;BME280_pressure;Samples;Min_cycle;Max_cycle;Signal;HPM_P1;HPM_P2
2021/09/26 00:00:38;;;;;;;;;;;;;;;;;;2093784;28;5646;-72
2021/09/26 00:01:38;;;;;;;;;;;;;;;;;;2096567;28;4864;-73
2021/09/26 00:02:39;;;;;;;;;;;;;;;;;;2099057;28;2037;-72
2021/09/26 00:03:48;;;;;;;;;;;;;;;;;;2098764;28;4691;-72
2021/09/26 00:04:50;;;;;;;;;;;;;;;;;;2098909;28;4084;-73
2021/09/26 00:05:50;;;;;;;;;;;;;;;;;;2097557;28;4648;-72
2021/09/26 00:09:29;;;;;;;;;;;;;;;;;;2091677;28;4688;-72
2021/09/26 00:10:29;;;;;;;;;;;;;;;;;;2099224;28;2154;-73
2021/09/26 00:11:30;;;;;;;;;;;;;;;;;;2099636;27;2333;-72
2021/09/26 00:12:30;;;;;;;;;;;;;;;;;;2098991;28;3587;-73
2021/09/26 00:13:31;;;;;;;;;;;;;;;;;;2097943;28;4743;-72
2021/09/26 00:14:31;;;;;;;;;;;;;;;;;;2099487;28;2470;-73
2021/09/26 00:15:33;;;;;;;;;;;;;;;;;;2097942;28;3143;-72
2021/09/26 00:16:33;;;;;;;;;;;;;;;;;;2099373;28;2087;-72
2021/09/26 00:17:34;;;;;;;;;;;;;;;;;;2097334;28;5030;-72
2021/09/26 00:18:34;;;;;;;;;;;;;;;;;;2094717;28;5062;-72
2021/09/26 00:19:35;;;;;;;;;;;;;;;;;;2096882;28;4922;-72
2021/09/26 00:20:35;;;;;;;;;;;;;;;;;;2099208;28;4045;-72
2021/09/26 00:21:36;;;;;;;;;;;;;;;;;;2098551;28;4105;-72
2021/09/26 00:22:36;;;;;;;;;;;;;;;;;;2099095;28;4423;-72
2021/09/26 00:23:37;;;;;;;;;;;;;;;;;;2095429;28;4627;-72
2021/09/26 00:24:38;;;;;;;;;;;;;;;;;;2097366;28;4015;-72
2021/09/26 00:25:39;;;;;;;;;;;;;;;;;;2100546;27;5320;-73
2021/09/26 00:26:40;;;;;;;;;;;;;;;;;;2097603;27;4557;-72
2021/09/26 00:27:40;;;;;;;;;;;;;;;;;;2098939;28;2952;-72
2021/09/26 00:28:41;;;;;;;;;;;;;;;;;;2096909;28;4004;-72
2021/09/26 00:29:41;;;;;;;;;;;;;;;;;;2098051;28;4729;-72
2021/09/26 00:30:42;;;;;;;;;;;;;;;;;;2099381;28;2235;-72
2021/09/26 00:31:42;;;;;;;;;;;;;;;;;;2099314;28;3964;-72
2021/09/26 00:32:43;;;;;;;;;;;;;;;;;;2098256;27;4057;-72
2021/09/26 00:33:45;;;;;;;;;;;;;;;;;;2099380;27;3012;-72
2021/09/26 00:34:45;;;;;;;;;;;;;;;;;;2099581;27;4430;-73
2021/09/26 00:35:46;;;;;;;;;;;;;;;;;;2098517;28;4759;-72
2021/09/26 00:36:46;;;;;;;;;;;;;;;;;;2099323;28;4803;-72
2021/09/26 00:37:47;;;;;;;;;;;;;;;;;;2100024;28;4666;-72
2021/09/26 00:38:47;;;;;;;;;;;;;;;;;;2096751;27;4202;-72
2021/09/26 00:39:48;;;;;;;;;;;;;;;;;;2100234;28;3006;-72
2021/09/26 00:40:48;;;;;;;;;;;;;;;;;;2100150;28;1509;-72
2021/09/26 00:41:49;;;;;;;;;;;;;;;;;;2096559;28;4671;-73
2021/09/26 00:42:49;;;;;;;;;;;;;;;;;;2096903;28;4686;-72
2021/09/26 00:43:51;;;;;;;;;;;;;;;;;;2097116;28;5620;-72
2021/09/26 00:44:52;;;;;;;;;;;;;;;;;;2097681;28;4221;-73
2021/09/26 00:45:52;;;;;;;;;;;;;;;;;;2096628;28;3952;-72
2021/09/26 00:46:53;;;;;;;;;;;;;;;;;;2097006;28;5307;-72
2021/09/26 00:47:53;;;;;;;;;;;;;;;;;;2098851;28;2410;-73
2021/09/26 00:48:54;;;;;;;;;;;;;;;;;;2095373;28;4931;-73
2021/09/26 00:49:54;;;;;;;;;;;;;;;;;;2095874;28;4777;-73
2021/09/26 00:50:55;;;;;;;;;;;;;;;;;;2098417;28;4459;-72
2021/09/26 00:51:56;;;;;;;;;;;;;;;;;;2099547;28;2699;-72
2021/09/26 00:52:57;;;;;;;;;;;;;;;;;;2100302;28;1142;-72
2021/09/26 00:53:57;;;;;;;;;;;;;;;;;;2097267;28;5127;-72
2021/09/26 00:54:58;;;;;;;;;;;;;;;;;;2097345;28;4899;-72
2021/09/26 00:55:58;;;;;;;;;;;;;;;;;;2096636;28;5529;-72
2021/09/26 00:56:59;;;;;;;;;;;;;;;;;;2097438;28;4490;-72
2021/09/26 00:57:59;;;;;;;;;;;;;;;;;;2098612;28;5554;-72
2021/09/26 00:59:02;;;;;;;;;;;;;;;;;;2094579;28;4553;-72
2021/09/26 01:00:02;;;;;;;;;;;;;;;;;;2096257;28;5598;-72
2021/09/26 01:01:03;;;;;;;;;;;;;;;;;;2097596;28;4584;-72
2021/09/26 01:02:03;;;;;;;;;;;;;;;;;;2098768;28;3696;-72
2021/09/26 01:03:04;;;;;;;;;;;;;;;;;;2100152;28;1199;-72
2021/09/26 01:04:05;;;;;;;;;;;;;;;;;;2098113;28;4801;-72
2021/09/26 01:05:06;;;;;;;;;;;;;;;;;;2097125;28;5007;-72
2021/09/26 01:06:07;;;;;;;;;;;;;;;;;;2097646;28;4786;-72
2021/09/26 01:07:07;;;;;;;;;;;;;;;;;;2098067;28;4200;-72
2021/09/26 01:08:08;;;;;;;;;;;;;;;;;;2100215;28;3464;-72
2021/09/26 01:09:08;;;;;;;;;;;;;;;;;;2095241;28;4864;-72
2021/09/26 01:10:09;;;;;;;;;;;;;;;;;;2097768;28;5234;-72
2021/09/26 01:11:10;;;;;;;;;;;;;;;;;;2096787;28;5361;-72
2021/09/26 01:12:11;;;;;;;;;;;;;;;;;;2096528;28;4774;-72
2021/09/26 01:13:11;;;;;;;;;;;;;;;;;;2097206;28;5292;-72
2021/09/26 01:14:12;;;;;;;;;;;;;;;;;;2095666;28;4777;-72
2021/09/26 01:15:12;;;;;;;;;;;;;;;;;;2098445;28;4848;-73
2021/09/26 01:16:13;;;;;;;;;;;;;;;;;;2099512;28;4892;-73
2021/09/26 01:17:14;;;;;;;;;;;;;;;;;;2097654;28;4430;-73
2021/09/26 01:18:17;;;;;;;;;;;;;;;;;;2099539;28;2423;-72
2021/09/26 01:19:18;;;;;;;;;;;;;;;;;;2099167;28;4974;-73
2021/09/26 01:20:19;;;;;;;;;;;;;;;;;;2098803;28;5728;-73
2021/09/26 01:21:20;;;;;;;;;;;;;;;;;;2104501;28;1383;-73
2021/09/26 01:22:20;;;;;;;;;;;;;;;;;;2104197;28;3477;-72
2021/09/26 01:23:21;;;;;;;;;;;;;;;;;;2104066;28;4664;-72
2021/09/26 01:24:21;;;;;;;;;;;;;;;;;;2103209;28;1301;-72
2021/09/26 01:25:22;;;;;;;;;;;;;;;;;;2100114;28;5139;-73
2021/09/26 01:26:22;;;;;;;;;;;;;;;;;;2100027;28;5351;-73
2021/09/26 01:27:23;;;;;;;;;;;;;;;;;;2098549;28;5156;-72
2021/09/26 01:28:24;;;;;;;;;;;;;;;;;;2097281;28;4715;-73
2021/09/26 01:29:28;;;;;;;;;;;;;;;;;;2095603;28;4918;-72
2021/09/26 01:30:29;;;;;;;;;;;;;;;;;;2095427;28;5061;-72
2021/09/26 01:31:29;;;;;;;;;;;;;;;;;;2096786;28;4608;-72
2021/09/26 01:32:31;;;;;;;;;;;;;;;;;;2096466;28;4836;-72
2021/09/26 01:33:31;;;;;;;;;;;;;;;;;;2096789;28;4713;-72
2021/09/26 01:34:32;;;;;;;;;;;;;;;;;;2097090;28;5600;-72
2021/09/26 01:35:33;;;;;;;;;;;;;;;;;;2097148;28;4549;-72
2021/09/26 01:36:36;;;;;;;;;;;;;;;;;;2096329;28;4080;-72
2021/09/26 01:37:40;;;;;;;;;;;;;;;;;;2096513;28;3973;-72
2021/09/26 01:38:40;;;;;;;;;;;;;;;;;;2093456;28;4582;-72
2021/09/26 01:39:41;;;;;;;;;;;;;;;;;;2095070;28;3445;-72
2021/09/26 01:40:41;;;;;;;;;;;;;;;;;;2097946;28;4215;-72
2021/09/26 01:41:42;;;;;;;;;;;;;;;;;;2099370;28;3701;-72
2021/09/26 01:42:42;;;;;;;;;;;;;;;;;;2097546;28;4220;-72
2021/09/26 01:43:44;;;;;;;;;;;;;;;;;;2096402;28;4786;-72
2021/09/26 01:44:44;;;;;;;;;;;;;;;;;;2095639;27;4813;-73
2021/09/26 01:45:45;;;;;;;;;;;;;;;;;;2097379;28;4259;-72
2021/09/26 01:46:45;;;;;;;;;;;;;;;;;;2096802;28;4282;-72
2021/09/26 01:47:46;;;;;;;;;;;;;;;;;;2095984;28;4998;-72
2021/09/26 01:48:47;;;;;;;;;;;;;;;;;;2094665;28;4682;-72
2021/09/26 01:49:47;;;;;;;;;;;;;;;;;;2094884;28;4530;-73
2021/09/26 01:50:48;;;;;;;;;;;;;;;;;;2099833;28;1066;-72
2021/09/26 01:51:49;;;;;;;;;;;;;;;;;;2098682;28;1085;-72
2021/09/26 01:52:50;;;;;;;;;;;;;;;;;;2096051;28;4073;-72
2021/09/26 01:53:50;;;;;;;;;;;;;;;;;;2095419;28;5149;-72
2021/09/26 01:54:51;;;;;;;;;;;;;;;;;;2097240;28;5093;-73
2021/09/26 01:55:54;;;;;;;;;;;;;;;;;;2093165;28;4204;-72
2021/09/26 01:56:57;;;;;;;;;;;;;;;;;;2097062;28;3932;-72
2021/09/26 01:57:57;;;;;;;;;;;;;;;;;;2096138;28;4197;-73
2021/09/26 01:58:58;;;;;;;;;;;;;;;;;;2095661;28;4121;-72
2021/09/26 02:00:00;;;;;;;;;;;;;;;;;;2096044;28;4683;-73
2021/09/26 02:01:01;;;;;;;;;;;;;;;;;;2096487;28;3775;-72
2021/09/26 02:02:01;;;;;;;;;;;;;;;;;;2095823;28;5014;-73
2021/09/26 02:03:02;;;;;;;;;;;;;;;;;;2096042;28;4059;-72
2021/09/26 02:04:02;;;;;;;;;;;;;;;;;;2097830;28;5363;-73
2021/09/26 02:05:03;;;;;;;;;;;;;;;;;;2098141;28;4680;-73
2021/09/26 02:06:04;;;;;;;;;;;;;;;;;;2095650;27;5035;-72
2021/09/26 02:07:04;;;;;;;;;;;;;;;;;;2097784;27;4835;-72
2021/09/26 02:08:06;;;;;;;;;;;;;;;;;;2095399;28;4125;-72
2021/09/26 02:09:06;;;;;;;;;;;;;;;;;;2096080;28;4146;-72
2021/09/26 02:10:07;;;;;;;;;;;;;;;;;;2096056;28;4424;-72
2021/09/26 02:11:08;;;;;;;;;;;;;;;;;;2095557;28;4876;-73
2021/09/26 02:12:09;;;;;;;;;;;;;;;;;;2096882;28;5007;-72
2021/09/26 02:13:11;;;;;;;;;;;;;;;;;;2099224;27;1368;-73
2021/09/26 02:14:12;;;;;;;;;;;;;;;;;;2098474;28;3903;-72
2021/09/26 02:15:12;;;;;;;;;;;;;;;;;;2096808;28;4868;-72
2021/09/26 02:16:14;;;;;;;;;;;;;;;;;;2096286;28;4775;-72
2021/09/26 02:17:14;;;;;;;;;;;;;;;;;;2097995;28;4094;-73
2021/09/26 02:18:15;;;;;;;;;;;;;;;;;;2097482;27;4754;-72
2021/09/26 02:19:15;;;;;;;;;;;;;;;;;;2094322;28;5135;-72
2021/09/26 02:20:16;;;;;;;;;;;;;;;;;;2097282;28;5048;-72
2021/09/26 02:21:16;;;;;;;;;;;;;;;;;;2095883;28;4350;-72
2021/09/26 02:22:17;;;;;;;;;;;;;;;;;;2096183;28;4314;-72
2021/09/26 02:23:18;;;;;;;;;;;;;;;;;;2093599;28;4735;-72
2021/09/26 02:24:21;;;;;;;;;;;;;;;;;;2095209;27;4649;-72
2021/09/26 02:25:22;;;;;;;;;;;;;;;;;;2097935;28;3853;-73
2021/09/26 02:26:23;;;;;;;;;;;;;;;;;;2095380;28;4691;-72
2021/09/26 02:27:23;;;;;;;;;;;;;;;;;;2098225;28;4873;-72
2021/09/26 02:28:24;;;;;;;;;;;;;;;;;;2099140;28;2435;-73
2021/09/26 02:29:27;;;;;;;;;;;;;;;;;;2099066;28;1695;-72
2021/09/26 02:30:31;;;;;;;;;;;;;;;;;;2099039;28;1926;-72
2021/09/26 02:31:31;;;;;;;;;;;;;;;;;;2098588;28;1046;-72
2021/09/26 02:32:32;;;;;;;;;;;;;;;;;;2099326;28;4417;-72
2021/09/26 02:33:36;;;;;;;;;;;;;;;;;;2098736;28;1200;-72
2021/09/26 02:34:36;;;;;;;;;;;;;;;;;;2099323;28;2730;-72
2021/09/26 02:35:40;;;;;;;;;;;;;;;;;;2099461;28;1383;-72
2021/09/26 02:36:42;;;;;;;;;;;;;;;;;;2099487;28;1151;-72
2021/09/26 02:37:42;;;;;;;;;;;;;;;;;;2099739;28;1209;-72
2021/09/26 02:38:45;;;;;;;;;;;;;;;;;;2097962;27;2695;-72
2021/09/26 02:39:45;;;;;;;;;;;;;;;;;;2097570;27;1400;-72
2021/09/26 02:40:46;;;;;;;;;;;;;;;;;;2099278;28;1391;-72
2021/09/26 02:41:46;;;;;;;;;;;;;;;;;;2100217;27;966;-72
2021/09/26 02:42:48;;;;;;;;;;;;;;;;;;2097706;28;4812;-72
2021/09/26 02:43:49;;;;;;;;;;;;;;;;;;2098813;28;2079;-72
2021/09/26 02:44:49;;;;;;;;;;;;;;;;;;2098951;28;1178;-72
2021/09/26 02:45:50;;;;;;;;;;;;;;;;;;2098987;28;1102;-72
2021/09/26 02:46:50;;;;;;;;;;;;;;;;;;2099647;28;1061;-72
2021/09/26 02:47:51;;;;;;;;;;;;;;;;;;2099882;28;1011;-72
2021/09/26 02:48:51;;;;;;;;;;;;;;;;;;2098918;28;4593;-72
2021/09/26 02:50:00;;;;;;;;;;;;;;;;;;2099862;27;1890;-72
2021/09/26 02:51:00;;;;;;;;;;;;;;;;;;2101884;28;2168;-72
2021/09/26 02:52:01;;;;;;;;;;;;;;;;;;2103461;28;1275;-72
2021/09/26 02:53:02;;;;;;;;;;;;;;;;;;2103463;28;1193;-72
2021/09/26 02:54:02;;;;;;;;;;;;;;;;;;2103660;28;1091;-72
2021/09/26 02:55:03;;;;;;;;;;;;;;;;;;2103640;28;1297;-73
2021/09/26 02:56:03;;;;;;;;;;;;;;;;;;2103286;28;1110;-72
2021/09/26 02:57:04;;;;;;;;;;;;;;;;;;2104021;28;1069;-72
2021/09/26 02:58:04;;;;;;;;;;;;;;;;;;2104071;27;1306;-72
2021/09/26 02:59:06;;;;;;;;;;;;;;;;;;2103307;28;4691;-72
2021/09/26 03:00:06;;;;;;;;;;;;;;;;;;2101903;28;4583;-72
2021/09/26 03:01:07;;;;;;;;;;;;;;;;;;2103360;28;1368;-72
2021/09/26 03:02:10;;;;;;;;;;;;;;;;;;2102107;28;1650;-72
2021/09/26 03:03:10;;;;;;;;;;;;;;;;;;2101019;28;2459;-72
2021/09/26 03:04:11;;;;;;;;;;;;;;;;;;2102454;28;4604;-72
2021/09/26 03:05:11;;;;;;;;;;;;;;;;;;2100578;28;1003;-72
2021/09/26 03:06:12;;;;;;;;;;;;;;;;;;2096937;28;4554;-72
2021/09/26 03:07:13;;;;;;;;;;;;;;;;;;2093582;28;5212;-72
2021/09/26 03:08:14;;;;;;;;;;;;;;;;;;2095587;28;4459;-72
2021/09/26 03:09:14;;;;;;;;;;;;;;;;;;2093419;28;4567;-72
2021/09/26 03:10:15;;;;;;;;;;;;;;;;;;2095885;28;4737;-72
2021/09/26 03:11:15;;;;;;;;;;;;;;;;;;2096273;28;4882;-72
2021/09/26 03:12:16;;;;;;;;;;;;;;;;;;2095556;28;4945;-72
2021/09/26 03:13:17;;;;;;;;;;;;;;;;;;2095350;28;4284;-72
2021/09/26 03:14:17;;;;;;;;;;;;;;;;;;2095398;28;4359;-72
2021/09/26 03:15:18;;;;;;;;;;;;;;;;;;2095124;28;4065;-72
2021/09/26 03:16:18;;;;;;;;;;;;;;;;;;2095257;28;4449;-72
2021/09/26 03:17:20;;;;;;;;;;;;;;;;;;2094314;28;5383;-72
2021/09/26 03:18:20;;;;;;;;;;;;;;;;;;2094183;28;4717;-72
2021/09/26 03:19:21;;;;;;;;;;;;;;;;;;2094064;28;5737;-72
2021/09/26 03:20:21;;;;;;;;;;;;;;;;;;2095959;28;4445;-72
2021/09/26 03:21:22;;;;;;;;;;;;;;;;;;2094916;28;4449;-73
2021/09/26 03:22:22;;;;;;;;;;;;;;;;;;2096192;28;4156;-72
2021/09/26 03:23:23;;;;;;;;;;;;;;;;;;2099607;28;1214;-72
2021/09/26 03:24:23;;;;;;;;;;;;;;;;;;2095380;28;4932;-72
2021/09/26 03:25:26;;;;;;;;;;;;;;;;;;2096272;28;4217;-73
2021/09/26 03:26:27;;;;;;;;;;;;;;;;;;2095904;28;4359;-72
2021/09/26 03:27:27;;;;;;;;;;;;;;;;;;2095193;28;4718;-72
2021/09/26 03:28:28;;;;;;;;;;;;;;;;;;2094628;28;4609;-72
2021/09/26 03:29:28;;;;;;;;;;;;;;;;;;2095683;28;4575;-72
2021/09/26 03:30:29;;;;;;;;;;;;;;;;;;2095790;28;4403;-72
2021/09/26 03:31:29;;;;;;;;;;;;;;;;;;2095995;28;4718;-72
2021/09/26 03:32:30;;;;;;;;;;;;;;;;;;2096216;28;4424;-73
2021/09/26 03:33:30;;;;;;;;;;;;;;;;;;2094718;28;4224;-72
2021/09/26 03:34:32;;;;;;;;;;;;;;;;;;2095067;28;4751;-72
2021/09/26 03:35:34;;;;;;;;;;;;;;;;;;2094826;28;4822;-72
2021/09/26 03:36:36;;;;;;;;;;;;;;;;;;2095325;28;4698;-72
2021/09/26 03:37:36;;;;;;;;;;;;;;;;;;2096775;28;3919;-72
2021/09/26 03:38:37;;;;;;;;;;;;;;;;;;2094462;28;4205;-72
2021/09/26 03:39:37;;;;;;;;;;;;;;;;;;2094740;28;4223;-73
2021/09/26 03:40:38;;;;;;;;;;;;;;;;;;2096292;28;4086;-73
2021/09/26 03:42:40;;;;;;;;;;;;;;;;;;2118162;27;4439;-72
2021/09/26 03:43:41;;;;;;;;;;;;;;;;;;2118587;27;4877;-72
2021/09/26 03:44:42;;;;;;;;;;;;;;;;;;2118522;27;5128;-72
2021/09/26 03:45:49;;;;;;;;;;;;;;;;;;2118864;27;4933;-72
2021/09/26 03:46:50;;;;;;;;;;;;;;;;;;2119595;27;4293;-72
2021/09/26 03:47:51;;;;;;;;;;;;;;;;;;2119498;27;4853;-72
2021/09/26 03:48:51;;;;;;;;;;;;;;;;;;2109884;27;3883;-72
2021/09/26 03:49:52;;;;;;;;;;;;;;;;;;2109311;27;4361;-73
2021/09/26 03:50:52;;;;;;;;;;;;;;;;;;2111493;27;4397;-72
2021/09/26 03:51:53;;;;;;;;;;;;;;;;;;2109710;27;4305;-72
2021/09/26 03:52:54;;;;;;;;;;;;;;;;;;2110299;27;4809;-72
2021/09/26 03:53:54;;;;;;;;;;;;;;;;;;2109603;27;4840;-72
2021/09/26 03:54:55;;;;;;;;;;;;;;;;;;2108140;27;5146;-72
2021/09/26 03:55:56;;;;;;;;;;;;;;;;;;2110955;27;4409;-72
2021/09/26 03:56:57;;;;;;;;;;;;;;;;;;2109788;27;4786;-72
2021/09/26 03:57:57;;;;;;;;;;;;;;;;;;2108134;27;4176;-72
2021/09/26 03:58:58;;;;;;;;;;;;;;;;;;2108833;27;5034;-72
2021/09/26 03:59:58;;;;;;;;;;;;;;;;;;2111030;27;3120;-72
2021/09/26 04:00:59;;;;;;;;;;;;;;;;;;2108300;27;4764;-72
2021/09/26 04:01:59;;;;;;;;;;;;;;;;;;2110718;27;4901;-72
2021/09/26 04:03:00;;;;;;;;;;;;;;;;;;2111688;27;5514;-73
2021/09/26 04:04:00;;;;;;;;;;;;;;;;;;2109291;27;4449;-72
2021/09/26 04:05:02;;;;;;;;;;;;;;;;;;2109361;27;4532;-72
2021/09/26 04:06:05;;;;;;;;;;;;;;;;;;2109043;27;4609;-72
2021/09/26 04:07:06;;;;;;;;;;;;;;;;;;2108335;27;4259;-72
2021/09/26 04:08:07;;;;;;;;;;;;;;;;;;2107644;27;4816;-73
2021/09/26 04:09:07;;;;;;;;;;;;;;;;;;2109075;27;4343;-72
2021/09/26 04:10:08;;;;;;;;;;;;;;;;;;2112468;27;4669;-72
2021/09/26 04:11:08;;;;;;;;;;;;;;;;;;2108000;27;4548;-72
2021/09/26 04:12:09;;;;;;;;;;;;;;;;;;2110364;27;4378;-72
2021/09/26 04:13:09;;;;;;;;;;;;;;;;;;2109119;27;4818;-72
2021/09/26 04:14:10;;;;;;;;;;;;;;;;;;2112097;27;4899;-72
2021/09/26 04:15:11;;;;;;;;;;;;;;;;;;2110656;27;4492;-72
2021/09/26 04:16:12;;;;;;;;;;;;;;;;;;2110314;27;4186;-72
2021/09/26 04:17:12;;;;;;;;;;;;;;;;;;2109764;27;4402;-72
2021/09/26 04:18:13;;;;;;;;;;;;;;;;;;2110870;27;4856;-72
2021/09/26 04:19:13;;;;;;;;;;;;;;;;;;2107914;27;4246;-72
2021/09/26 04:20:14;;;;;;;;;;;;;;;;;;2110615;27;4600;-72
2021/09/26 04:21:14;;;;;;;;;;;;;;;;;;2112980;27;5044;-72
2021/09/26 04:22:15;;;;;;;;;;;;;;;;;;2110849;27;4624;-72
2021/09/26 04:23:15;;;;;;;;;;;;;;;;;;2110371;27;4801;-72
2021/09/26 04:24:17;;;;;;;;;;;;;;;;;;2110160;27;4852;-72
2021/09/26 04:25:17;;;;;;;;;;;;;;;;;;2109036;27;5332;-72
2021/09/26 04:26:18;;;;;;;;;;;;;;;;;;2109299;27;4659;-72
2021/09/26 04:27:18;;;;;;;;;;;;;;;;;;2110634;27;5080;-72
2021/09/26 04:28:19;;;;;;;;;;;;;;;;;;2108003;27;5890;-72
2021/09/26 04:29:20;;;;;;;;;;;;;;;;;;2108245;27;4596;-72
2021/09/26 04:30:20;;;;;;;;;;;;;;;;;;2107521;27;4976;-72
2021/09/26 04:31:21;;;;;;;;;;;;;;;;;;2109554;27;5204;-72
2021/09/26 04:32:21;;;;;;;;;;;;;;;;;;2110865;27;4085;-72
2021/09/26 04:33:22;;;;;;;;;;;;;;;;;;2110835;27;4847;-72
2021/09/26 04:34:26;;;;;;;;;;;;;;;;;;2109402;27;4627;-72
2021/09/26 04:35:27;;;;;;;;;;;;;;;;;;2110656;27;5119;-72
2021/09/26 04:36:27;;;;;;;;;;;;;;;;;;2109369;27;4725;-72
2021/09/26 04:37:28;;;;;;;;;;;;;;;;;;2109977;27;4787;-72
2021/09/26 04:38:28;;;;;;;;;;;;;;;;;;2107394;27;5405;-72
2021/09/26 04:39:29;;;;;;;;;;;;;;;;;;2109394;27;4862;-72
2021/09/26 04:40:29;;;;;;;;;;;;;;;;;;2110642;27;5199;-73
2021/09/26 04:41:30;;;;;;;;;;;;;;;;;;2110634;27;4719;-72
2021/09/26 04:42:30;;;;;;;;;;;;;;;;;;2112480;27;4615;-72
2021/09/26 04:43:31;;;;;;;;;;;;;;;;;;2116137;27;1356;-72
2021/09/26 04:44:32;;;;;;;;;;;;;;;;;;2109591;27;4844;-72
2021/09/26 04:45:33;;;;;;;;;;;;;;;;;;2109709;27;4798;-72
2021/09/26 04:46:33;;;;;;;;;;;;;;;;;;2111385;27;3651;-72
2021/09/26 04:47:34;;;;;;;;;;;;;;;;;;2113620;27;4095;-72
2021/09/26 04:48:35;;;;;;;;;;;;;;;;;;2105390;27;4658;-72
2021/09/26 04:49:35;;;;;;;;;;;;;;;;;;2107033;27;4753;-72
2021/09/26 04:50:36;;;;;;;;;;;;;;;;;;2109980;27;4370;-72
2021/09/26 04:51:36;;;;;;;;;;;;;;;;;;2110312;27;4422;-72
2021/09/26 04:52:37;;;;;;;;;;;;;;;;;;2109627;27;3267;-72
2021/09/26 04:53:37;;;;;;;;;;;;;;;;;;2101629;27;4721;-73
2021/09/26 04:54:39;;;;;;;;;;;;;;;;;;2101770;27;4646;-72
2021/09/26 04:55:39;;;;;;;;;;;;;;;;;;2104222;27;3185;-72
2021/09/26 04:56:40;;;;;;;;;;;;;;;;;;2107028;27;1240;-72
2021/09/26 04:57:40;;;;;;;;;;;;;;;;;;2106985;27;2258;-72
2021/09/26 04:58:41;;;;;;;;;;;;;;;;;;2103549;27;4893;-72
2021/09/26 04:59:41;;;;;;;;;;;;;;;;;;2103233;27;4578;-72
2021/09/26 05:00:42;;;;;;;;;;;;;;;;;;2104880;27;4520;-72
2021/09/26 05:01:43;;;;;;;;;;;;;;;;;;2103086;27;4354;-72
2021/09/26 05:02:44;;;;;;;;;;;;;;;;;;2103233;27;4539;-72
2021/09/26 05:03:44;;;;;;;;;;;;;;;;;;2102348;27;5296;-72
2021/09/26 05:04:45;;;;;;;;;;;;;;;;;;2103069;27;4643;-72
2021/09/26 05:05:46;;;;;;;;;;;;;;;;;;2103444;27;5325;-72
2021/09/26 05:06:47;;;;;;;;;;;;;;;;;;2103356;27;4697;-72
2021/09/26 05:07:47;;;;;;;;;;;;;;;;;;2102805;27;4745;-72
2021/09/26 05:08:48;;;;;;;;;;;;;;;;;;2103898;27;5157;-72
2021/09/26 05:09:48;;;;;;;;;;;;;;;;;;2103670;27;5137;-72
2021/09/26 05:10:49;;;;;;;;;;;;;;;;;;2103634;27;4181;-72
2021/09/26 05:11:52;;;;;;;;;;;;;;;;;;2101824;27;4176;-72
2021/09/26 05:12:53;;;;;;;;;;;;;;;;;;2102596;27;4640;-72
2021/09/26 05:13:53;;;;;;;;;;;;;;;;;;2103324;27;4588;-72
2021/09/26 05:14:55;;;;;;;;;;;;;;;;;;2103080;27;4449;-72
2021/09/26 05:15:55;;;;;;;;;;;;;;;;;;2107071;27;4271;-72
2021/09/26 05:16:57;;;;;;;;;;;;;;;;;;2109403;27;1053;-72
2021/09/26 05:17:57;;;;;;;;;;;;;;;;;;2106178;27;4845;-72
2021/09/26 05:18:58;;;;;;;;;;;;;;;;;;2102583;27;4405;-72
2021/09/26 05:19:58;;;;;;;;;;;;;;;;;;2103418;27;4268;-72
2021/09/26 05:20:59;;;;;;;;;;;;;;;;;;2104464;27;4914;-73
2021/09/26 05:22:00;;;;;;;;;;;;;;;;;;2104048;27;4489;-72
2021/09/26 05:23:00;;;;;;;;;;;;;;;;;;2101608;27;4892;-72
2021/09/26 05:24:01;;;;;;;;;;;;;;;;;;2100966;27;5150;-72
2021/09/26 05:25:02;;;;;;;;;;;;;;;;;;2104025;27;5080;-72
2021/09/26 05:26:03;;;;;;;;;;;;;;;;;;2106056;27;5098;-72
2021/09/26 05:27:03;;;;;;;;;;;;;;;;;;2103260;27;5135;-72
2021/09/26 05:28:04;;;;;;;;;;;;;;;;;;2105902;27;4373;-72
2021/09/26 05:29:06;;;;;;;;;;;;;;;;;;2104734;27;3580;-72
2021/09/26 05:30:07;;;;;;;;;;;;;;;;;;2108388;27;2968;-72
2021/09/26 05:31:07;;;;;;;;;;;;;;;;;;2101404;27;5393;-72
2021/09/26 05:32:08;;;;;;;;;;;;;;;;;;2107143;27;2643;-72
2021/09/26 05:33:09;;;;;;;;;;;;;;;;;;2108824;27;4494;-72
2021/09/26 05:34:09;;;;;;;;;;;;;;;;;;2103604;27;4588;-73
2021/09/26 05:35:10;;;;;;;;;;;;;;;;;;2103174;27;4381;-72
2021/09/26 05:36:12;;;;;;;;;;;;;;;;;;2103692;27;4773;-72
2021/09/26 05:37:12;;;;;;;;;;;;;;;;;;2109498;27;2224;-72
2021/09/26 05:38:13;;;;;;;;;;;;;;;;;;2107872;27;5244;-72
2021/09/26 05:39:13;;;;;;;;;;;;;;;;;;2100274;27;4706;-73
2021/09/26 05:40:14;;;;;;;;;;;;;;;;;;2104130;27;4636;-72
2021/09/26 05:41:15;;;;;;;;;;;;;;;;;;2105159;27;3869;-72
2021/09/26 05:42:15;;;;;;;;;;;;;;;;;;2103401;27;4938;-72
2021/09/26 05:43:16;;;;;;;;;;;;;;;;;;2104235;27;5056;-72
2021/09/26 05:44:16;;;;;;;;;;;;;;;;;;2102546;27;4979;-73
2021/09/26 05:45:18;;;;;;;;;;;;;;;;;;2104083;27;4766;-72
2021/09/26 05:46:18;;;;;;;;;;;;;;;;;;2103495;27;5445;-72
2021/09/26 05:47:19;;;;;;;;;;;;;;;;;;2104303;27;4624;-72
2021/09/26 05:48:20;;;;;;;;;;;;;;;;;;2102377;27;4610;-72
2021/09/26 05:49:20;;;;;;;;;;;;;;;;;;2103941;27;4538;-72
2021/09/26 05:50:21;;;;;;;;;;;;;;;;;;2104921;27;4336;-72
2021/09/26 05:51:21;;;;;;;;;;;;;;;;;;2104723;27;4755;-72
2021/09/26 05:52:22;;;;;;;;;;;;;;;;;;2103881;27;4595;-72
2021/09/26 05:53:22;;;;;;;;;;;;;;;;;;2104533;27;4742;-72
2021/09/26 05:54:23;;;;;;;;;;;;;;;;;;2104521;27;4370;-72
2021/09/26 05:55:24;;;;;;;;;;;;;;;;;;2108147;27;3907;-72
2021/09/26 05:56:25;;;;;;;;;;;;;;;;;;2107541;27;4711;-72
2021/09/26 05:57:25;;;;;;;;;;;;;;;;;;2108723;27;4494;-73
2021/09/26 05:58:26;;;;;;;;;;;;;;;;;;2105120;27;4764;-72
2021/09/26 05:59:26;;;;;;;;;;;;;;;;;;2101590;27;5081;-72
2021/09/26 06:00:27;;;;;;;;;;;;;;;;;;2103100;27;4833;-72
2021/09/26 06:01:28;;;;;;;;;;;;;;;;;;2107267;27;4944;-72
2021/09/26 06:02:29;;;;;;;;;;;;;;;;;;2107447;27;4677;-72
2021/09/26 06:03:30;;;;;;;;;;;;;;;;;;2106090;27;4681;-72
2021/09/26 06:04:30;;;;;;;;;;;;;;;;;;2104697;27;4888;-72
2021/09/26 06:05:31;;;;;;;;;;;;;;;;;;2102825;27;4442;-72
2021/09/26 06:06:31;;;;;;;;;;;;;;;;;;2106137;27;5460;-72
2021/09/26 06:07:32;;;;;;;;;;;;;;;;;;2105084;27;4371;-72
2021/09/26 06:08:32;;;;;;;;;;;;;;;;;;2103804;27;4600;-72
2021/09/26 06:09:33;;;;;;;;;;;;;;;;;;2103716;27;4565;-72
2021/09/26 06:10:34;;;;;;;;;;;;;;;;;;2105361;27;4603;-72
2021/09/26 06:11:35;;;;;;;;;;;;;;;;;;2105764;27;4506;-72
2021/09/26 06:12:36;;;;;;;;;;;;;;;;;;2108282;27;4398;-72
2021/09/26 06:13:37;;;;;;;;;;;;;;;;;;2106166;27;5137;-72
2021/09/26 06:14:37;;;;;;;;;;;;;;;;;;2103229;27;5018;-72
2021/09/26 06:15:38;;;;;;;;;;;;;;;;;;2107300;27;5113;-72
2021/09/26 06:16:40;;;;;;;;;;;;;;;;;;2104464;27;4291;-72
2021/09/26 06:17:41;;;;;;;;;;;;;;;;;;2102600;27;4738;-72
2021/09/26 06:18:41;;;;;;;;;;;;;;;;;;2100645;27;4867;-72
2021/09/26 06:19:42;;;;;;;;;;;;;;;;;;2104081;27;4729;-72
2021/09/26 06:20:42;;;;;;;;;;;;;;;;;;2104480;27;4436;-72
2021/09/26 06:21:43;;;;;;;;;;;;;;;;;;2103461;27;5144;-72
2021/09/26 06:22:45;;;;;;;;;;;;;;;;;;2102992;27;4533;-72
2021/09/26 06:23:45;;;;;;;;;;;;;;;;;;2104348;27;3911;-72
2021/09/26 06:24:46;;;;;;;;;;;;;;;;;;2101087;27;4440;-73
2021/09/26 06:25:46;;;;;;;;;;;;;;;;;;2102011;27;4506;-72
2021/09/26 06:26:47;;;;;;;;;;;;;;;;;;2101709;27;4799;-72
2021/09/26 06:27:47;;;;;;;;;;;;;;;;;;2106143;27;5047;-72
2021/09/26 06:28:50;;;;;;;;;;;;;;;;;;2102268;27;4443;-72
2021/09/26 06:29:50;;;;;;;;;;;;;;;;;;2105175;27;5385;-72
2021/09/26 06:30:51;;;;;;;;;;;;;;;;;;2106442;27;3493;-72
2021/09/26 06:31:52;;;;;;;;;;;;;;;;;;2106853;27;4533;-72
2021/09/26 06:32:54;;;;;;;;;;;;;;;;;;2106709;27;4910;-72
2021/09/26 06:33:54;;;;;;;;;;;;;;;;;;2106344;27;4395;-72
2021/09/26 06:34:55;;;;;;;;;;;;;;;;;;2105810;27;4631;-72
2021/09/26 06:35:55;;;;;;;;;;;;;;;;;;2107427;27;4745;-72
2021/09/26 06:36:57;;;;;;;;;;;;;;;;;;2104754;27;4477;-72
2021/09/26 06:37:57;;;;;;;;;;;;;;;;;;2108282;27;1557;-72
2021/09/26 06:38:58;;;;;;;;;;;;;;;;;;2104629;27;4614;-72
2021/09/26 06:39:58;;;;;;;;;;;;;;;;;;2105989;27;2201;-72
2021/09/26 06:41:00;;;;;;;;;;;;;;;;;;2107027;27;4844;-73
2021/09/26 06:42:00;;;;;;;;;;;;;;;;;;2107750;27;1048;-72
2021/09/26 06:43:01;;;;;;;;;;;;;;;;;;2107150;27;4690;-73
2021/09/26 06:44:01;;;;;;;;;;;;;;;;;;2107164;27;1126;-72
2021/09/26 06:45:02;;;;;;;;;;;;;;;;;;2107096;27;2222;-72
2021/09/26 06:46:02;;;;;;;;;;;;;;;;;;2107257;27;1343;-72
2021/09/26 06:47:04;;;;;;;;;;;;;;;;;;2106881;27;1172;-72
2021/09/26 06:48:05;;;;;;;;;;;;;;;;;;2106915;27;1378;-72
2021/09/26 06:49:05;;;;;;;;;;;;;;;;;;2105742;27;2348;-72
2021/09/26 06:50:06;;;;;;;;;;;;;;;;;;2106800;27;1000;-72
2021/09/26 06:51:06;;;;;;;;;;;;;;;;;;2107131;27;1041;-72
2021/09/26 06:52:07;;;;;;;;;;;;;;;;;;2106344;27;2021;-72
2021/09/26 06:53:08;;;;;;;;;;;;;;;;;;2104960;27;4649;-72
2021/09/26 06:54:09;;;;;;;;;;;;;;;;;;2105873;27;2520;-72
2021/09/26 06:55:09;;;;;;;;;;;;;;;;;;2106294;27;1514;-72
2021/09/26 06:56:10;;;;;;;;;;;;;;;;;;2107102;27;1247;-72
2021/09/26 06:57:10;;;;;;;;;;;;;;;;;;2105320;27;4289;-72
2021/09/26 06:58:11;;;;;;;;;;;;;;;;;;2106000;27;3252;-72
2021/09/26 06:59:11;;;;;;;;;;;;;;;;;;2104936;27;2375;-72
2021/09/26 07:00:12;;;;;;;;;;;;;;;;;;2105932;27;1169;-72
2021/09/26 07:01:13;;;;;;;;;;;;;;;;;;2103332;28;4784;-72
2021/09/26 07:02:17;;;;;;;;;;;;;;;;;;2105206;28;4413;-72
2021/09/26 07:03:18;;;;;;;;;;;;;;;;;;2104373;28;2406;-72
2021/09/26 07:04:19;;;;;;;;;;;;;;;;;;2104667;27;3808;-72
2021/09/26 07:05:21;;;;;;;;;;;;;;;;;;2105211;27;1491;-72
2021/09/26 07:06:22;;;;;;;;;;;;;;;;;;2104309;27;4219;-72